Time;durP1;ratioP1;P1;durP2;ratioP2;P2;SDS_P1;SDS_P2;PMS_P1;PMS_P2;Temp;Humidity;BMP_temperature;BMP_pressure;BME280_temperature;BME280_humidity;BME280_pressure;Samples;Min_cycle;Max_cycle;Signal;HPM_P1;HPM_P2
2022/08/16 00:02:07;;;;;;;14.37;11.17;;;18.30;99.10;;;;;;4988839;28;20621;-68
2022/08/16 00:04:34;;;;;;;16.33;11.23;;;18.20;99.60;;;;;;4986455;28;20886;-69
2022/08/16 00:07:02;;;;;;;30.37;12.27;;;18.10;99.80;;;;;;4989897;28;20481;-69
2022/08/16 00:09:29;;;;;;;15.53;11.60;;;18.10;99.70;;;;;;4995482;28;20493;-69
2022/08/16 00:11:57;;;;;;;20.63;13.10;;;18.20;99.20;;;;;;4995255;28;21399;-69
2022/08/16 00:14:26;;;;;;;11.53;8.93;;;18.40;98.50;;;;;;4991581;28;20994;-68
2022/08/16 00:16:54;;;;;;;15.80;10.40;;;18.50;98.00;;;;;;4976505;28;20490;-68
2022/08/16 00:19:32;;;;;;;17.87;12.47;;;18.40;97.90;;;;;;4969776;28;20493;-68
2022/08/16 00:21:59;;;;;;;22.80;10.57;;;18.50;97.60;;;;;;4997884;28;20510;-69
2022/08/16 00:24:27;;;;;;;14.20;10.03;;;18.40;97.40;;;;;;4982844;28;20604;-69
2022/08/16 00:26:55;;;;;;;14.07;10.17;;;18.40;97.40;;;;;;4974254;28;20580;-68
2022/08/16 00:29:23;;;;;;;19.30;11.90;;;18.40;97.30;;;;;;4994920;28;20486;-68
2022/08/16 00:31:51;;;;;;;21.80;11.50;;;18.40;97.20;;;;;;4988867;28;20500;-68
2022/08/16 00:34:20;;;;;;;20.80;12.10;;;18.50;97.40;;;;;;4992340;28;20485;-68
2022/08/16 00:36:47;;;;;;;16.53;11.30;;;18.50;97.40;;;;;;4982857;28;20486;-69
2022/08/16 00:39:15;;;;;;;18.30;11.37;;;18.50;97.10;;;;;;4982629;28;20473;-69
2022/08/16 00:41:43;;;;;;;17.47;12.27;;;18.50;97.40;;;;;;4983931;28;21320;-69
2022/08/16 00:44:11;;;;;;;13.60;10.17;;;18.50;97.20;;;;;;4987401;28;21508;-69
2022/08/16 00:46:44;;;;;;;17.07;11.80;;;18.50;97.10;;;;;;4989677;28;21360;-69
2022/08/16 00:49:13;;;;;;;23.63;10.57;;;18.40;97.50;;;;;;4995806;28;20511;-68
2022/08/16 00:51:40;;;;;;;15.70;10.97;;;18.30;97.90;;;;;;4984738;28;20489;-69
2022/08/16 00:54:07;;;;;;;14.93;10.87;;;18.20;98.20;;;;;;4978656;28;20490;-68
2022/08/16 00:56:41;;;;;;;31.57;13.83;;;18.20;98.00;;;;;;4978579;28;20481;-69
2022/08/16 00:59:11;;;;;;;16.93;11.70;;;18.20;98.00;;;;;;4996052;28;20491;-69
2022/08/16 01:01:41;;;;;;;24.07;11.00;;;18.10;99.10;;;;;;4977175;28;20479;-69
2022/08/16 01:04:09;;;;;;;15.90;11.97;;;18.00;99.40;;;;;;4977313;28;20609;-69
2022/08/16 01:06:37;;;;;;;24.57;13.47;;;18.00;99.60;;;;;;4994652;28;20495;-69
2022/08/16 01:09:05;;;;;;;24.77;12.70;;;17.90;99.90;;;;;;4995819;28;21033;-69
2022/08/16 01:11:34;;;;;;;19.00;13.00;;;17.90;99.90;;;;;;4978981;28;21343;-69
2022/08/16 01:14:06;;;;;;;23.20;14.40;;;17.90;99.90;;;;;;4987753;28;20487;-69
2022/08/16 01:16:33;;;;;;;24.93;14.33;;;18.00;99.90;;;;;;4984128;28;20714;-69
2022/08/16 01:19:07;;;;;;;23.47;14.83;;;18.00;99.90;;;;;;4995937;28;20505;-69
2022/08/16 01:21:40;;;;;;;25.13;15.47;;;18.20;99.50;;;;;;4975615;28;20479;-69
2022/08/16 01:24:27;;;;;;;19.57;12.50;;;18.30;99.30;;;;;;4981879;28;20879;-68
2022/08/16 01:26:58;;;;;;;15.83;10.93;;;18.40;99.00;;;;;;4983392;28;20477;-68
2022/08/16 01:29:31;;;;;;;17.47;11.50;;;18.50;98.60;;;;;;4985110;28;20517;-69
2022/08/16 01:31:58;;;;;;;16.93;11.00;;;18.60;98.50;;;;;;4989331;28;20473;-68
2022/08/16 01:34:25;;;;;;;30.93;13.20;;;18.60;98.30;;;;;;4980539;28;20493;-68
2022/08/16 01:36:58;;;;;;;23.20;13.13;;;18.70;98.40;;;;;;4980679;28;20471;-68
2022/08/16 01:39:27;;;;;;;46.40;15.10;;;18.70;98.10;;;;;;4997804;28;22159;-68
2022/08/16 01:41:54;;;;;;;20.27;11.63;;;18.70;98.20;;;;;;4998815;28;20490;-68
2022/08/16 01:44:20;;;;;;;29.47;15.40;;;18.70;98.30;;;;;;4980458;28;20479;-68
2022/08/16 01:46:49;;;;;;;21.03;12.80;;;19.00;98.30;;;;;;4978373;28;20484;-69
2022/08/16 01:49:18;;;;;;;21.93;13.27;;;18.60;98.20;;;;;;4989248;28;21000;-68
2022/08/16 01:51:50;;;;;;;17.87;10.80;;;18.60;98.30;;;;;;5000758;28;20583;-68
2022/08/16 01:54:17;;;;;;;28.20;14.00;;;18.60;98.10;;;;;;4983798;28;20489;-68
2022/08/16 01:56:45;;;;;;;20.70;12.47;;;18.60;98.20;;;;;;4988609;28;20493;-68
2022/08/16 01:59:14;;;;;;;19.00;11.83;;;18.60;98.10;;;;;;4985435;28;20481;-68
2022/08/16 02:01:41;;;;;;;26.00;11.40;;;18.50;98.20;;;;;;4985850;28;20483;-69
2022/08/16 02:04:08;;;;;;;21.33;11.63;;;18.40;98.50;;;;;;4981485;28;20470;-68
2022/08/16 02:06:35;;;;;;;39.53;16.33;;;18.30;98.90;;;;;;4978313;28;20493;-68
2022/08/16 02:09:02;;;;;;;31.83;13.03;;;18.10;99.50;;;;;;4989554;28;20477;-68
2022/08/16 02:11:29;;;;;;;26.67;14.97;;;18.00;99.80;;;;;;4989309;28;21018;-69
2022/08/16 02:13:57;;;;;;;23.77;14.00;;;18.00;99.90;;;;;;4997036;28;20485;-69
2022/08/16 02:16:25;;;;;;;35.60;14.43;;;18.10;99.60;;;;;;4970947;28;20498;-69
2022/08/16 02:18:52;;;;;;;22.43;13.23;;;18.20;99.30;;;;;;4976143;28;21016;-69
2022/08/16 02:21:19;;;;;;;20.97;12.73;;;18.20;99.50;;;;;;4984354;28;20486;-69
2022/08/16 02:23:46;;;;;;;27.70;11.47;;;18.30;98.90;;;;;;4980144;28;20581;-69
2022/08/16 02:26:15;;;;;;;15.40;11.17;;;18.40;98.70;;;;;;4980878;28;20561;-69
2022/08/16 02:28:42;;;;;;;22.67;12.23;;;18.50;98.70;;;;;;4982704;28;20485;-68
2022/08/16 02:31:13;;;;;;;21.43;12.97;;;18.50;98.50;;;;;;4976768;28;21045;-68
2022/08/16 02:33:40;;;;;;;18.40;11.47;;;18.60;98.50;;;;;;4996494;28;21331;-68
2022/08/16 02:36:08;;;;;;;20.23;11.13;;;18.60;98.50;;;;;;4978289;28;20482;-69
2022/08/16 02:38:37;;;;;;;21.20;13.23;;;18.60;98.40;;;;;;4979010;28;20499;-69
2022/08/16 02:41:06;;;;;;;21.27;12.47;;;18.60;98.40;;;;;;4979927;28;20476;-69
2022/08/16 02:43:34;;;;;;;15.53;11.80;;;18.60;98.70;;;;;;4995169;28;20482;-68
2022/08/16 02:46:02;;;;;;;20.83;11.87;;;18.60;98.80;;;;;;4993295;28;20493;-68
2022/08/16 02:48:30;;;;;;;21.97;14.93;;;18.50;98.90;;;;;;4975669;28;20562;-69
2022/08/16 02:50:57;;;;;;;19.20;10.67;;;18.40;99.20;;;;;;4967376;28;20568;-69
2022/08/16 02:53:25;;;;;;;17.47;12.50;;;18.40;99.30;;;;;;4986977;28;21048;-69
2022/08/16 02:55:52;;;;;;;19.97;12.73;;;18.30;99.60;;;;;;5000100;28;20486;-69
2022/08/16 02:58:19;;;;;;;23.37;12.57;;;18.20;99.90;;;;;;4982719;28;20493;-69
2022/08/16 03:00:46;;;;;;;17.97;12.10;;;18.20;99.90;;;;;;4981865;28;20482;-69
2022/08/16 03:03:13;;;;;;;14.33;11.93;;;18.20;99.90;;;;;;4975706;28;20485;-69
2022/08/16 03:05:41;;;;;;;27.87;12.53;;;18.10;99.90;;;;;;4986787;28;20481;-69
2022/08/16 03:08:09;;;;;;;21.20;13.93;;;18.10;99.90;;;;;;4973221;28;20493;-69
2022/08/16 03:10:36;;;;;;;20.17;13.87;;;18.00;99.90;;;;;;4980153;28;20486;-69
2022/08/16 03:13:04;;;;;;;27.37;13.93;;;17.90;99.90;;;;;;4979948;28;20498;-69
2022/08/16 03:15:31;;;;;;;22.03;13.90;;;17.90;99.90;;;;;;4983829;28;20485;-69
2022/08/16 03:18:00;;;;;;;22.80;14.13;;;17.90;99.90;;;;;;4996204;28;20828;-69
2022/08/16 03:20:27;;;;;;;26.10;13.30;;;18.10;99.90;;;;;;4983437;28;20489;-69
2022/08/16 03:22:55;;;;;;;26.40;14.33;;;18.20;99.90;;;;;;4991580;28;20481;-68
2022/08/16 03:25:22;;;;;;;33.33;17.47;;;18.20;99.90;;;;;;4973684;28;20485;-69
2022/08/16 03:27:49;;;;;;;24.83;12.80;;;18.30;99.90;;;;;;4986481;28;20483;-69
2022/08/16 03:30:20;;;;;;;17.23;11.90;;;18.30;99.90;;;;;;4982176;28;21037;-69
2022/08/16 03:32:48;;;;;;;14.90;11.87;;;18.30;99.90;;;;;;4980286;28;20514;-69
2022/08/16 03:35:16;;;;;;;20.50;14.33;;;18.30;99.90;;;;;;4983454;28;20478;-69
2022/08/16 03:37:44;;;;;;;21.67;14.50;;;18.20;99.90;;;;;;4983737;28;21042;-69
2022/08/16 03:40:15;;;;;;;17.17;12.53;;;18.30;99.90;;;;;;4983012;28;20509;-69
2022/08/16 03:42:42;;;;;;;19.87;14.50;;;18.30;99.70;;;;;;4975799;28;20466;-69
2022/08/16 03:45:09;;;;;;;20.23;12.80;;;18.40;99.60;;;;;;4979643;28;21057;-69
2022/08/16 03:47:37;;;;;;;17.27;11.87;;;18.40;99.40;;;;;;4978852;28;20487;-69
2022/08/16 03:50:05;;;;;;;14.93;11.63;;;18.40;99.50;;;;;;4968248;28;20486;-69
2022/08/16 03:52:34;;;;;;;16.80;12.00;;;18.40;99.40;;;;;;4964136;28;20498;-69
2022/08/16 03:55:00;;;;;;;21.80;11.63;;;18.40;99.20;;;;;;4973741;28;20890;-69
2022/08/16 03:57:29;;;;;;;17.93;13.97;;;18.40;99.20;;;;;;4981326;28;20478;-68
2022/08/16 03:59:56;;;;;;;18.17;12.93;;;18.40;99.20;;;;;;4988697;28;20489;-68
2022/08/16 04:02:23;;;;;;;29.07;12.17;;;18.40;98.90;;;;;;4990454;28;20525;-68
2022/08/16 04:04:50;;;;;;;14.83;11.83;;;18.40;98.60;;;;;;4984915;28;20490;-68
2022/08/16 04:07:17;;;;;;;16.63;12.40;;;18.40;98.40;;;;;;4986678;28;20893;-68
2022/08/16 04:09:44;;;;;;;24.77;14.20;;;18.40;98.30;;;;;;4980848;28;20478;-68
2022/08/16 04:12:12;;;;;;;18.13;13.83;;;18.40;98.50;;;;;;4974113;28;20495;-68
2022/08/16 04:14:40;;;;;;;15.47;12.40;;;18.30;98.90;;;;;;4989376;28;20486;-69
2022/08/16 04:17:06;;;;;;;31.83;13.30;;;18.10;99.10;;;;;;4951218;28;20488;-68
2022/08/16 04:19:34;;;;;;;23.63;13.47;;;18.00;99.00;;;;;;4967735;28;20925;-68
2022/08/16 04:22:00;;;;;;;15.93;12.70;;;17.90;99.60;;;;;;4962052;28;20549;-68
2022/08/16 04:24:28;;;;;;;26.97;12.30;;;17.80;99.60;;;;;;4966032;28;20856;-68
2022/08/16 04:26:54;;;;;;;17.57;12.70;;;17.80;99.80;;;;;;4960488;28;20494;-68
2022/08/16 04:29:21;;;;;;;23.97;13.43;;;17.60;99.90;;;;;;4966128;28;20511;-68
2022/08/16 04:31:51;;;;;;;30.43;11.97;;;17.60;99.90;;;;;;4958796;28;20870;-68
2022/08/16 04:34:17;;;;;;;14.83;10.97;;;17.70;99.90;;;;;;4959631;28;20479;-68
2022/08/16 04:36:44;;;;;;;18.80;14.33;;;17.70;99.90;;;;;;4972178;28;20479;-68
2022/08/16 04:39:11;;;;;;;20.40;12.20;;;17.80;99.60;;;;;;4962610;28;20471;-68
2022/08/16 04:41:38;;;;;;;21.70;12.97;;;17.90;99.40;;;;;;4965841;28;20483;-68
2022/08/16 04:44:05;;;;;;;17.67;11.83;;;17.90;99.40;;;;;;4957599;28;20483;-69
2022/08/16 04:46:31;;;;;;;21.80;12.40;;;17.90;99.30;;;;;;4968841;28;21424;-69
2022/08/16 04:48:59;;;;;;;18.63;13.83;;;17.90;99.20;;;;;;4978256;28;20482;-68
2022/08/16 04:51:26;;;;;;;21.00;13.27;;;18.00;98.90;;;;;;4976668;28;20494;-69
2022/08/16 04:53:53;;;;;;;21.53;10.30;;;18.00;98.60;;;;;;4978076;28;20478;-68
2022/08/16 04:56:20;;;;;;;19.80;13.73;;;18.00;98.80;;;;;;4996038;28;20562;-69
2022/08/16 04:58:47;;;;;;;16.63;12.30;;;18.00;98.80;;;;;;4992200;28;20481;-68
2022/08/16 05:01:13;;;;;;;26.33;13.17;;;18.00;98.70;;;;;;4993471;28;20891;-68
2022/08/16 05:03:41;;;;;;;20.30;15.63;;;18.00;99.00;;;;;;4983753;28;20511;-69
2022/08/16 05:06:09;;;;;;;16.23;14.07;;;18.10;99.20;;;;;;4965573;28;20484;-68
2022/08/16 05:08:36;;;;;;;24.50;13.67;;;18.10;99.20;;;;;;4974852;28;20486;-69
2022/08/16 05:11:06;;;;;;;16.40;12.90;;;18.20;99.30;;;;;;4977202;28;20494;-69
2022/08/16 05:13:34;;;;;;;18.60;13.37;;;;;;;;;;4964977;28;21469;-69
2022/08/16 05:16:00;;;;;;;17.17;12.57;;;18.30;99.10;;;;;;4959184;28;20494;-69
2022/08/16 05:18:27;;;;;;;17.40;13.23;;;18.30;99.00;;;;;;4965967;28;20593;-69
2022/08/16 05:20:55;;;;;;;16.90;12.27;;;18.30;99.00;;;;;;4957244;28;20488;-68
2022/08/16 05:23:23;;;;;;;22.50;13.37;;;18.40;99.00;;;;;;4974808;28;20490;-69
2022/08/16 05:25:50;;;;;;;19.13;14.37;;;18.50;99.00;;;;;;4978248;28;20482;-69
2022/08/16 05:28:18;;;;;;;21.47;15.57;;;18.40;99.50;;;;;;4980984;28;20489;-69
2022/08/16 05:30:45;;;;;;;18.33;13.60;;;18.30;99.60;;;;;;4990850;28;20485;-69
2022/08/16 05:33:12;;;;;;;17.83;13.87;;;18.20;99.90;;;;;;4977872;28;20796;-69
2022/08/16 05:35:39;;;;;;;21.40;14.13;;;18.20;99.90;;;;;;4963266;28;20494;-69
2022/08/16 05:38:06;;;;;;;23.40;15.50;;;18.20;99.90;;;;;;4954670;28;20824;-68
2022/08/16 05:40:34;;;;;;;26.70;15.30;;;18.30;99.90;;;;;;4963696;28;20483;-69
2022/08/16 05:43:01;;;;;;;33.03;16.20;;;18.40;99.90;;;;;;4958847;28;20475;-69
2022/08/16 05:45:28;;;;;;;31.13;16.63;;;18.40;99.90;;;;;;4960948;28;20490;-69
2022/08/16 05:47:55;;;;;;;28.10;15.67;;;18.50;99.90;;;;;;4964358;28;20497;-69
2022/08/16 05:50:21;;;;;;;28.07;17.80;;;18.70;99.90;;;;;;4960372;28;20487;-69
2022/08/16 05:52:48;;;;;;;21.77;16.73;;;18.70;99.90;;;;;;4958958;28;20484;-69
2022/08/16 05:55:15;;;;;;;29.17;17.27;;;18.80;99.90;;;;;;4961326;28;20491;-69
2022/08/16 05:57:44;;;;;;;20.83;14.73;;;19.00;99.90;;;;;;4984348;28;20473;-69
2022/08/16 06:00:13;;;;;;;24.23;16.80;;;19.00;99.90;;;;;;4987998;28;21011;-69
2022/08/16 06:02:40;;;;;;;29.80;16.73;;;19.10;99.90;;;;;;4988409;28;20489;-70
2022/08/16 06:05:08;;;;;;;31.37;15.60;;;19.10;99.90;;;;;;4987698;28;20478;-68
2022/08/16 06:07:35;;;;;;;19.53;15.40;;;;;;;;;;4987928;28;20485;-69
2022/08/16 06:10:03;;;;;;;21.17;16.87;;;19.20;99.90;;;;;;4979323;28;20489;-70
2022/08/16 06:12:31;;;;;;;23.70;17.30;;;19.30;99.90;;;;;;4977260;28;20493;-69
2022/08/16 06:15:02;;;;;;;21.30;17.13;;;19.40;99.90;;;;;;4983959;28;20500;-70
2022/08/16 06:17:29;;;;;;;25.37;17.30;;;19.50;99.90;;;;;;4982968;28;20540;-69
2022/08/16 06:19:56;;;;;;;34.53;17.63;;;19.60;99.90;;;;;;4989496;28;20486;-69
2022/08/16 06:22:23;;;;;;;25.63;18.03;;;19.60;99.90;;;;;;4980040;28;20493;-70
2022/08/16 06:24:50;;;;;;;24.40;18.60;;;19.70;99.90;;;;;;4987585;28;20818;-69
2022/08/16 06:27:17;;;;;;;33.30;19.00;;;19.80;99.90;;;;;;4974379;28;20549;-69
2022/08/16 06:29:44;;;;;;;26.20;18.80;;;20.00;99.90;;;;;;4996116;28;20835;-69
2022/08/16 06:32:12;;;;;;;24.47;17.27;;;20.10;99.90;;;;;;5000773;28;20510;-69
2022/08/16 06:34:39;;;;;;;34.37;18.47;;;20.20;99.90;;;;;;4980331;28;20494;-69
2022/08/16 06:37:06;;;;;;;21.80;17.57;;;20.30;99.90;;;;;;4975618;28;20481;-70
2022/08/16 06:39:33;;;;;;;22.27;17.77;;;20.50;99.90;;;;;;4991339;28;20951;-69
2022/08/16 06:42:00;;;;;;;28.03;17.97;;;20.80;99.90;;;;;;4996078;28;20487;-69
2022/08/16 06:44:27;;;;;;;22.30;17.13;;;21.00;99.90;;;;;;4999126;28;21243;-69
2022/08/16 06:46:53;;;;;;;25.23;18.00;;;21.20;99.90;;;;;;4968068;28;20485;-69
2022/08/16 06:49:21;;;;;;;29.83;16.97;;;21.50;99.90;;;;;;4985584;28;20486;-68
2022/08/16 06:51:48;;;;;;;19.33;15.73;;;21.80;99.90;;;;;;4981198;28;20490;-69
2022/08/16 06:54:16;;;;;;;21.10;15.50;;;22.00;99.90;;;;;;4979188;28;20493;-69
2022/08/16 06:56:43;;;;;;;25.47;15.90;;;22.40;99.40;;;;;;4979947;28;20482;-70
2022/08/16 06:59:10;;;;;;;16.63;14.43;;;22.70;99.00;;;;;;4977085;28;21336;-70
2022/08/16 07:01:36;;;;;;;16.13;14.43;;;23.00;98.70;;;;;;4987533;28;20496;-70
2022/08/16 07:04:03;;;;;;;25.47;14.83;;;23.30;98.00;;;;;;4990923;28;20478;-70
2022/08/16 07:06:31;;;;;;;16.93;15.23;;;23.60;97.60;;;;;;4988873;28;20493;-70
2022/08/16 07:08:59;;;;;;;30.73;16.60;;;;;;;;;;4976790;28;20925;-70
2022/08/16 07:11:26;;;;;;;22.07;13.10;;;24.10;96.20;;;;;;4994670;28;20506;-70
2022/08/16 07:13:53;;;;;;;14.63;12.80;;;24.00;96.10;;;;;;4988816;28;20513;-69
2022/08/16 07:16:20;;;;;;;16.60;14.60;;;24.00;95.90;;;;;;4997830;28;20976;-70
2022/08/16 07:18:47;;;;;;;24.00;14.20;;;24.30;96.40;;;;;;4977170;28;20474;-70
2022/08/16 07:21:15;;;;;;;21.67;13.60;;;24.40;95.80;;;;;;4979227;28;21002;-70
2022/08/16 07:23:45;;;;;;;15.73;14.10;;;24.50;95.50;;;;;;4984199;28;20562;-70
2022/08/16 07:26:14;;;;;;;13.93;11.87;;;24.40;94.00;;;;;;4984737;28;20581;-70
2022/08/16 07:28:41;;;;;;;23.23;14.57;;;24.30;94.90;;;;;;4985931;28;20470;-70
2022/08/16 07:31:08;;;;;;;14.17;12.63;;;24.30;94.30;;;;;;4994507;28;20487;-70
2022/08/16 07:33:37;;;;;;;15.47;13.97;;;24.30;95.10;;;;;;4986236;28;20943;-70
2022/08/16 07:36:04;;;;;;;14.87;13.20;;;24.30;94.30;;;;;;4978495;28;20490;-70
2022/08/16 07:38:31;;;;;;;18.57;13.50;;;24.30;94.10;;;;;;4979100;28;20478;-70
2022/08/16 07:40:59;;;;;;;13.97;12.63;;;24.60;95.00;;;;;;4991777;28;20827;-70
2022/08/16 07:43:26;;;;;;;17.43;14.63;;;24.70;94.50;;;;;;4989383;28;20505;-71
2022/08/16 07:45:53;;;;;;;20.10;13.70;;;24.80;94.10;;;;;;4992445;28;20550;-70
2022/08/16 07:48:21;;;;;;;15.67;13.87;;;25.00;94.30;;;;;;4980339;28;20495;-70
2022/08/16 07:50:48;;;;;;;15.13;13.63;;;25.00;93.70;;;;;;4977663;28;20587;-70
2022/08/16 07:53:14;;;;;;;14.57;13.07;;;25.00;93.70;;;;;;5000601;28;20489;-71
2022/08/16 07:55:41;;;;;;;17.70;13.87;;;24.80;93.30;;;;;;4987542;28;20481;-70
2022/08/16 07:58:10;;;;;;;15.53;14.13;;;24.90;94.10;;;;;;4992245;28;20497;-70
2022/08/16 08:00:38;;;;;;;19.43;14.23;;;24.60;93.30;;;;;;4984826;28;20475;-71
2022/08/16 08:03:05;;;;;;;17.20;14.03;;;24.60;94.20;;;;;;4981950;28;20980;-71
2022/08/16 08:05:32;;;;;;;14.07;12.63;;;24.50;93.80;;;;;;4992507;28;20470;-70
2022/08/16 08:07:59;;;;;;;15.17;10.13;;;24.50;93.70;;;;;;4981810;28;21008;-71
2022/08/16 08:10:26;;;;;;;14.40;12.87;;;24.50;93.90;;;;;;4968298;28;20482;-70
2022/08/16 08:12:56;;;;;;;14.37;12.97;;;24.50;93.60;;;;;;4978355;28;20497;-70
2022/08/16 08:15:26;;;;;;;17.73;13.27;;;24.50;93.30;;;;;;5000908;28;20544;-70
2022/08/16 08:17:53;;;;;;;16.03;12.80;;;24.70;93.30;;;;;;4978965;28;20486;-71
2022/08/16 08:20:25;;;;;;;16.00;14.37;;;24.60;93.10;;;;;;4989638;28;21013;-70
2022/08/16 08:22:53;;;;;;;19.27;13.10;;;24.50;92.60;;;;;;4985097;28;21666;-70
2022/08/16 08:25:21;;;;;;;16.63;14.27;;;24.60;92.70;;;;;;4994547;28;20497;-71
2022/08/16 08:27:48;;;;;;;14.77;13.23;;;24.60;92.90;;;;;;4980367;28;20492;-71
2022/08/16 08:30:15;;;;;;;15.37;13.80;;;24.70;93.10;;;;;;4997304;28;20477;-71
2022/08/16 08:32:43;;;;;;;16.47;14.60;;;24.70;92.90;;;;;;4994179;28;21000;-71
2022/08/16 08:35:11;;;;;;;15.53;13.93;;;;;;;;;;4978988;28;20852;-71
2022/08/16 08:37:39;;;;;;;20.63;13.03;;;25.00;92.20;;;;;;4983576;28;20482;-70
2022/08/16 08:40:07;;;;;;;15.80;14.10;;;25.10;92.90;;;;;;4978843;28;20486;-71
2022/08/16 08:42:34;;;;;;;22.00;14.10;;;25.30;92.60;;;;;;4993339;28;20990;-71
2022/08/16 08:45:02;;;;;;;14.33;12.93;;;25.60;92.20;;;;;;4977550;28;20493;-71
2022/08/16 08:47:29;;;;;;;20.67;13.60;;;25.90;91.80;;;;;;4978714;28;20603;-71
2022/08/16 08:49:57;;;;;;;16.60;13.27;;;26.30;91.70;;;;;;4974176;28;20498;-71
2022/08/16 08:52:24;;;;;;;16.50;14.73;;;26.20;90.10;;;;;;4977914;28;20490;-71
2022/08/16 08:54:51;;;;;;;25.10;14.83;;;26.30;90.60;;;;;;4992205;28;20490;-71
2022/08/16 08:57:19;;;;;;;25.83;15.13;;;26.10;89.10;;;;;;4980674;28;20486;-71
2022/08/16 08:59:45;;;;;;;15.53;13.93;;;26.00;89.60;;;;;;4988967;28;20981;-71
2022/08/16 09:02:13;;;;;;;13.73;12.30;;;26.20;90.50;;;;;;4997002;28;20636;-70
2022/08/16 09:04:40;;;;;;;23.03;13.47;;;26.20;87.70;;;;;;4988236;28;20477;-70
2022/08/16 09:07:08;;;;;;;20.93;14.23;;;26.20;87.30;;;;;;4981438;28;20546;-70
2022/08/16 09:09:35;;;;;;;15.63;14.03;;;26.20;88.30;;;;;;4978256;28;20488;-70
2022/08/16 09:12:03;;;;;;;13.70;12.30;;;26.20;87.90;;;;;;4984855;28;20469;-70
2022/08/16 09:14:30;;;;;;;16.20;12.87;;;26.30;88.80;;;;;;4981595;28;20479;-71
2022/08/16 09:16:57;;;;;;;13.93;12.43;;;26.30;88.00;;;;;;4978002;28;20478;-71
2022/08/16 09:19:23;;;;;;;14.83;13.00;;;26.30;88.10;;;;;;4987560;28;20527;-71
2022/08/16 09:21:50;;;;;;;14.57;12.20;;;26.30;88.00;;;;;;4981158;28;20486;-71
2022/08/16 09:24:19;;;;;;;15.87;14.10;;;26.40;87.80;;;;;;4976121;28;20494;-71
2022/08/16 09:26:45;;;;;;;13.30;12.00;;;26.40;89.40;;;;;;4980407;28;20468;-70
2022/08/16 09:29:12;;;;;;;18.30;12.43;;;26.60;88.90;;;;;;4985459;28;20953;-69
2022/08/16 09:31:40;;;;;;;14.90;13.40;;;26.80;86.30;;;;;;4978469;28;20490;-69
2022/08/16 09:34:07;;;;;;;12.60;11.50;;;26.80;84.40;;;;;;4991472;28;20540;-71
2022/08/16 09:36:33;;;;;;;14.80;13.40;;;26.80;84.60;;;;;;4988733;28;20990;-71
2022/08/16 09:39:02;;;;;;;14.10;12.70;;;26.60;84.00;;;;;;4975529;28;20504;-70
2022/08/16 09:41:33;;;;;;;21.20;10.73;;;26.40;83.80;;;;;;4983675;28;21066;-70
2022/08/16 09:44:02;;;;;;;10.93;9.93;;;26.20;83.60;;;;;;4989810;28;20470;-71
2022/08/16 09:46:29;;;;;;;12.10;10.90;;;26.30;83.90;;;;;;4995811;28;21052;-70
2022/08/16 09:48:57;;;;;;;16.37;10.10;;;26.20;85.00;;;;;;4987966;28;20482;-70
2022/08/16 09:51:26;;;;;;;11.20;10.30;;;26.20;83.90;;;;;;4990860;28;20534;-71
2022/08/16 09:53:54;;;;;;;12.03;10.93;;;26.10;83.70;;;;;;4977386;28;20582;-70
2022/08/16 09:56:26;;;;;;;10.60;9.70;;;26.30;81.70;;;;;;4988432;28;20966;-71
2022/08/16 09:58:54;;;;;;;19.13;11.30;;;26.60;83.00;;;;;;4977906;28;20479;-72
2022/08/16 10:01:21;;;;;;;11.37;10.30;;;26.70;84.20;;;;;;4966770;28;21115;-73
2022/08/16 10:03:48;;;;;;;14.53;11.10;;;26.80;80.20;;;;;;5000026;28;20460;-72
2022/08/16 10:06:15;;;;;;;12.80;10.60;;;26.80;80.30;;;;;;4988508;28;20495;-72
2022/08/16 10:08:42;;;;;;;16.93;11.87;;;27.00;81.90;;;;;;4993951;28;20477;-72
2022/08/16 10:13:54;;;;;;;10.57;9.50;;;27.10;81.00;;;;;;4980360;28;20478;-72
2022/08/16 10:16:21;;;;;;;12.13;10.93;;;27.20;79.80;;;;;;4994159;28;20497;-72
2022/08/16 10:18:48;;;;;;;11.13;10.13;;;27.30;79.50;;;;;;4995435;28;20478;-71
2022/08/16 10:21:15;;;;;;;10.83;9.73;;;27.70;78.60;;;;;;4973974;28;20900;-73
2022/08/16 10:23:42;;;;;;;9.20;8.20;;;27.90;77.00;;;;;;4980415;28;20488;-72
2022/08/16 10:26:09;;;;;;;10.83;9.83;;;28.00;78.00;;;;;;4993454;28;20485;-72
2022/08/16 10:28:37;;;;;;;9.00;8.20;;;27.80;74.50;;;;;;4977530;28;20482;-71
2022/08/16 10:31:06;;;;;;;8.30;7.50;;;27.80;74.90;;;;;;4989060;28;20513;-70
2022/08/16 10:33:34;;;;;;;7.40;6.70;;;27.80;75.30;;;;;;4976530;28;20590;-70
2022/08/16 10:36:05;;;;;;;17.47;7.20;;;27.90;75.80;;;;;;4982382;28;20493;-70
2022/08/16 10:38:34;;;;;;;8.30;7.60;;;27.90;73.80;;;;;;4984635;28;20589;-70
2022/08/16 10:41:01;;;;;;;9.40;7.60;;;28.00;74.90;;;;;;4998904;28;20848;-70
2022/08/16 10:43:28;;;;;;;14.03;7.93;;;28.20;74.20;;;;;;4989848;28;20564;-70
2022/08/16 10:45:56;;;;;;;7.00;6.40;;;28.50;72.90;;;;;;4977672;28;20490;-70
2022/08/16 10:48:24;;;;;;;8.27;7.37;;;28.70;73.70;;;;;;4990627;28;20486;-70
2022/08/16 10:50:51;;;;;;;12.53;7.73;;;28.80;72.70;;;;;;4990437;28;20459;-70
2022/08/16 10:53:17;;;;;;;8.97;8.20;;;28.70;72.10;;;;;;4993208;28;20449;-70
2022/08/16 10:55:45;;;;;;;13.73;7.37;;;28.80;73.90;;;;;;4994512;28;21249;-70
2022/08/16 10:58:14;;;;;;;15.20;7.33;;;28.90;73.80;;;;;;4982632;28;20490;-69
2022/08/16 11:00:42;;;;;;;8.33;7.53;;;28.70;70.70;;;;;;4979616;28;20500;-73
2022/08/16 11:03:10;;;;;;;8.00;7.30;;;28.80;72.30;;;;;;4979982;28;20581;-72
2022/08/16 11:05:40;;;;;;;10.70;8.27;;;29.10;72.40;;;;;;4966985;28;20490;-73
2022/08/16 11:08:10;;;;;;;7.67;7.00;;;29.00;72.30;;;;;;4970107;28;21137;-71
2022/08/16 11:10:39;;;;;;;13.33;7.40;;;28.90;69.50;;;;;;4961042;28;20488;-73
2022/08/16 11:13:09;;;;;;;6.67;6.17;;;29.10;70.90;;;;;;4962485;28;20496;-73
2022/08/16 11:15:37;;;;;;;8.07;7.37;;;29.20;71.00;;;;;;4966736;28;20486;-73
2022/08/16 11:18:07;;;;;;;28.67;8.20;;;29.30;69.70;;;;;;4959549;28;20542;-72
2022/08/16 11:20:34;;;;;;;8.77;7.60;;;29.20;68.80;;;;;;4966176;28;21219;-73
2022/08/16 11:23:02;;;;;;;7.00;5.70;;;29.30;70.90;;;;;;4984026;28;20453;-73
2022/08/16 11:25:31;;;;;;;13.30;6.80;;;29.40;70.90;;;;;;4978219;28;20480;-73
2022/08/16 11:28:00;;;;;;;6.77;6.27;;;29.40;69.50;;;;;;4979470;28;20492;-72
2022/08/16 11:30:28;;;;;;;7.43;6.73;;;29.40;69.00;;;;;;4992073;28;20456;-72
2022/08/16 11:32:55;;;;;;;12.83;7.00;;;29.40;68.60;;;;;;4978807;28;20720;-71
2022/08/16 11:35:24;;;;;;;6.87;6.27;;;29.30;66.60;;;;;;4962910;28;20462;-71
2022/08/16 11:37:55;;;;;;;6.63;6.13;;;29.60;68.50;;;;;;4982629;28;20470;-70
2022/08/16 11:40:25;;;;;;;6.30;5.70;;;29.80;67.80;;;;;;4976416;28;20502;-71
2022/08/16 11:42:53;;;;;;;8.80;6.70;;;30.10;67.00;;;;;;4985252;28;20516;-72
2022/08/16 11:45:20;;;;;;;23.60;6.37;;;30.20;66.90;;;;;;4988327;28;20489;-72
2022/08/16 11:47:47;;;;;;;6.00;5.40;;;30.40;65.30;;;;;;4981378;28;20485;-73
2022/08/16 11:50:15;;;;;;;5.40;5.00;;;30.40;65.90;;;;;;4982062;28;20478;-72
2022/08/16 11:52:42;;;;;;;5.63;5.10;;;29.90;65.30;;;;;;4993591;28;20472;-72
2022/08/16 11:55:11;;;;;;;6.63;5.93;;;29.70;65.40;;;;;;4986652;28;20468;-72
2022/08/16 11:57:40;;;;;;;6.83;6.13;;;29.60;67.20;;;;;;4978281;28;20465;-71
2022/08/16 12:00:10;;;;;;;13.00;6.53;;;29.50;65.20;;;;;;4979220;28;20479;-73
2022/08/16 12:02:38;;;;;;;6.90;6.23;;;29.30;65.60;;;;;;4972294;28;20457;-72
2022/08/16 12:05:07;;;;;;;7.13;6.43;;;29.20;66.10;;;;;;4964959;28;20457;-71
2022/08/16 12:07:34;;;;;;;13.80;6.67;;;29.10;67.40;;;;;;4970431;28;20461;-70
2022/08/16 12:10:01;;;;;;;7.90;6.37;;;29.30;68.90;;;;;;4969371;28;20474;-70
2022/08/16 12:12:28;;;;;;;6.93;6.17;;;29.70;68.00;;;;;;4970315;28;20486;-70
2022/08/16 12:14:56;;;;;;;11.43;5.60;;;30.20;67.50;;;;;;4971624;28;20441;-71
2022/08/16 12:17:23;;;;;;;6.77;6.13;;;30.30;64.60;;;;;;4965419;28;20461;-72
2022/08/16 12:19:50;;;;;;;8.10;6.63;;;30.50;64.30;;;;;;4969802;28;20996;-71
2022/08/16 12:22:17;;;;;;;11.10;5.37;;;30.70;63.60;;;;;;4962737;28;20487;-72
2022/08/16 12:24:43;;;;;;;6.10;5.67;;;30.70;65.40;;;;;;4969838;28;20490;-72
2022/08/16 12:27:11;;;;;;;8.23;5.60;;;30.50;63.10;;;;;;4972120;28;20792;-71
2022/08/16 12:29:38;;;;;;;22.93;5.97;;;30.00;63.20;;;;;;4963497;28;20978;-71
2022/08/16 12:32:06;;;;;;;6.77;6.07;;;29.90;64.50;;;;;;4976616;28;20690;-70
2022/08/16 12:34:33;;;;;;;6.80;6.10;;;30.10;66.10;;;;;;4967724;28;20472;-71
2022/08/16 12:37:03;;;;;;;6.47;5.87;;;30.40;66.20;;;;;;4975163;28;20556;-72